createdAt,value
2023-01-28T00:00:48.735Z,1021.47
2023-01-28T00:01:48.758Z,1021.48
2023-01-28T00:02:48.787Z,1021.44
2023-01-28T00:03:48.818Z,1021.42
2023-01-28T00:04:48.824Z,1021.43
2023-01-28T00:05:48.845Z,1021.46
2023-01-28T00:06:48.865Z,1021.49
2023-01-28T00:07:48.888Z,1021.47
2023-01-28T00:08:48.910Z,1021.45
2023-01-28T00:09:48.935Z,1021.47
2023-01-28T00:10:48.950Z,1021.47
2023-01-28T00:11:48.974Z,1021.48
2023-01-28T00:12:48.998Z,1021.40
2023-01-28T00:13:49.017Z,1021.42
2023-01-28T00:14:49.059Z,1021.42
2023-01-28T00:15:49.092Z,1021.40
2023-01-28T00:16:49.089Z,1021.42
2023-01-28T00:17:49.106Z,1021.46
2023-01-28T00:18:49.125Z,1021.46
2023-01-28T00:19:49.152Z,1021.46
2023-01-28T00:20:49.170Z,1021.47
2023-01-28T00:21:49.206Z,1021.41
2023-01-28T00:22:51.964Z,1021.45
2023-01-28T00:23:49.235Z,1021.39
2023-01-28T00:24:49.254Z,1021.38
2023-01-28T00:25:49.279Z,1021.38
2023-01-28T00:26:49.297Z,1021.42
2023-01-28T00:27:49.320Z,1021.40
2023-01-28T00:28:49.338Z,1021.44
2023-01-28T00:29:49.366Z,1021.40
2023-01-28T00:30:49.412Z,1021.42
2023-01-28T00:31:49.484Z,1021.39
2023-01-28T00:32:49.426Z,1021.35
2023-01-28T00:33:49.452Z,1021.35
2023-01-28T00:34:49.483Z,1021.42
2023-01-28T00:35:49.501Z,1021.46
2023-01-28T00:36:49.514Z,1021.43
2023-01-28T00:37:49.543Z,1021.39
2023-01-28T00:38:49.555Z,1021.42
2023-01-28T00:39:49.579Z,1021.46
2023-01-28T00:40:49.602Z,1021.48
2023-01-28T00:41:49.623Z,1021.44
2023-01-28T00:42:49.639Z,1021.46
2023-01-28T00:43:49.666Z,1021.51
2023-01-28T00:44:49.684Z,1021.50
2023-01-28T00:45:50.376Z,1021.53
2023-01-28T00:46:49.749Z,1021.53
2023-01-28T00:47:49.765Z,1021.51
2023-01-28T00:48:49.780Z,1021.51
2023-01-28T00:49:49.793Z,1021.48
2023-01-28T00:50:49.813Z,1021.54
2023-01-28T00:51:49.859Z,1021.53
2023-01-28T00:52:49.856Z,1021.54
2023-01-28T00:53:49.887Z,1021.53
2023-01-28T00:54:49.900Z,1021.57
2023-01-28T00:55:49.923Z,1021.55
2023-01-28T00:56:49.954Z,1021.53
2023-01-28T00:57:49.964Z,1021.59
2023-01-28T00:58:49.989Z,1021.61
2023-01-28T00:59:50.009Z,1021.59
2023-01-28T01:00:50.027Z,1021.59
2023-01-28T01:01:50.144Z,1021.57
2023-01-28T01:02:50.170Z,1021.56
2023-01-28T01:03:50.092Z,1021.58
2023-01-28T01:04:50.113Z,1021.56
2023-01-28T01:05:50.139Z,1021.50
2023-01-28T01:06:50.164Z,1021.45
2023-01-28T01:07:50.177Z,1021.49
2023-01-28T01:08:50.264Z,1021.45
2023-01-28T01:09:50.221Z,1021.46
2023-01-28T01:10:50.251Z,1021.41
2023-01-28T01:11:50.264Z,1021.39
2023-01-28T01:12:50.285Z,1021.38
2023-01-28T01:13:50.306Z,1021.37
2023-01-28T01:14:50.325Z,1021.34
2023-01-28T01:15:50.410Z,1021.35
2023-01-28T01:16:50.367Z,1021.32
2023-01-28T01:17:50.394Z,1021.33
2023-01-28T01:18:50.427Z,1021.35
2023-01-28T01:19:50.435Z,1021.37
2023-01-28T01:20:52.195Z,1021.36
2023-01-28T01:21:50.902Z,1021.40
2023-01-28T01:22:50.497Z,1021.43
2023-01-28T01:23:50.529Z,1021.43
2023-01-28T01:24:50.540Z,1021.41
2023-01-28T01:25:50.560Z,1021.39
2023-01-28T01:26:50.579Z,1021.48
2023-01-28T01:27:50.613Z,1021.50
2023-01-28T01:28:50.619Z,1021.52
2023-01-28T01:29:50.647Z,1021.50
2023-01-28T01:30:50.712Z,1021.53
2023-01-28T01:31:50.756Z,1021.50
2023-01-28T01:32:50.742Z,1021.50
2023-01-28T01:33:50.740Z,1021.54
2023-01-28T01:34:50.791Z,1021.54
2023-01-28T01:35:50.805Z,1021.54
2023-01-28T01:36:50.807Z,1021.59
2023-01-28T01:37:50.831Z,1021.56
2023-01-28T01:38:50.831Z,1021.58
2023-01-28T01:39:50.852Z,1021.57
2023-01-28T01:40:50.876Z,1021.51
2023-01-28T01:41:50.894Z,1021.53
2023-01-28T01:42:50.920Z,1021.53
2023-01-28T01:43:50.936Z,1021.55
2023-01-28T01:44:50.967Z,1021.49
2023-01-28T01:45:50.993Z,1021.49
2023-01-28T01:46:50.999Z,1021.48
2023-01-28T01:47:51.021Z,1021.47
2023-01-28T01:48:51.043Z,1021.48
2023-01-28T01:49:51.062Z,1021.50
2023-01-28T01:50:51.105Z,1021.44
2023-01-28T01:51:51.107Z,1021.47
2023-01-28T01:52:51.128Z,1021.51
2023-01-28T01:53:51.150Z,1021.50
2023-01-28T01:54:51.168Z,1021.49
2023-01-28T01:55:51.207Z,1021.51
2023-01-28T01:56:51.223Z,1021.48
2023-01-28T01:57:51.232Z,1021.49
2023-01-28T01:58:51.256Z,1021.55
2023-01-28T01:59:51.275Z,1021.60
2023-01-28T02:00:51.300Z,1021.56
2023-01-28T02:01:51.338Z,1021.59
2023-01-28T02:02:51.336Z,1021.66
2023-01-28T02:03:51.419Z,1021.62
2023-01-28T02:04:51.398Z,1021.60
2023-01-28T02:05:51.396Z,1021.55
2023-01-28T02:06:51.491Z,1021.56
2023-01-28T02:07:51.670Z,1021.53
2023-01-28T02:08:51.463Z,1021.59
2023-01-28T02:09:51.482Z,1021.50
2023-01-28T02:10:51.502Z,1021.53
2023-01-28T02:11:51.530Z,1021.56
2023-01-28T02:12:51.546Z,1021.53
2023-01-28T02:13:51.565Z,1021.58
2023-01-28T02:14:51.586Z,1021.52
2023-01-28T02:15:51.605Z,1021.57
2023-01-28T02:16:51.671Z,1021.51
2023-01-28T02:17:51.657Z,1021.55
2023-01-28T02:18:51.668Z,1021.57
2023-01-28T02:19:51.688Z,1021.59
2023-01-28T02:20:51.714Z,1021.56
2023-01-28T02:21:51.748Z,1021.57
2023-01-28T02:22:51.800Z,1021.55
2023-01-28T02:23:51.830Z,1021.54
2023-01-28T02:24:51.815Z,1021.57
2023-01-28T02:25:51.813Z,1021.51
2023-01-28T02:26:51.849Z,1021.56
2023-01-28T02:27:51.856Z,1021.50
2023-01-28T02:28:51.883Z,1021.51
2023-01-28T02:29:51.896Z,1021.51
2023-01-28T02:30:52.065Z,1021.51
2023-01-28T02:31:52.123Z,1021.51
2023-01-28T02:32:51.960Z,1021.57
2023-01-28T02:33:51.983Z,1021.54
2023-01-28T02:34:52.000Z,1021.56
2023-01-28T02:35:52.024Z,1021.55
2023-01-28T02:36:52.044Z,1021.57
2023-01-28T02:37:52.067Z,1021.64
2023-01-28T02:38:52.103Z,1021.71
2023-01-28T02:39:52.103Z,1021.69
2023-01-28T02:40:52.127Z,1021.74
2023-01-28T02:41:52.156Z,1021.76
2023-01-28T02:42:52.171Z,1021.81
2023-01-28T02:43:52.186Z,1021.76
2023-01-28T02:44:52.208Z,1021.74
2023-01-28T02:45:52.274Z,1021.75
2023-01-28T02:46:52.250Z,1021.75
2023-01-28T02:47:52.267Z,1021.80
2023-01-28T02:48:52.292Z,1021.77
2023-01-28T02:49:52.309Z,1021.79
2023-01-28T02:50:52.342Z,1021.78
2023-01-28T02:51:52.352Z,1021.75
2023-01-28T02:52:52.387Z,1021.79
2023-01-28T02:53:52.393Z,1021.78
2023-01-28T02:54:52.434Z,1021.78
2023-01-28T02:55:52.435Z,1021.85
2023-01-28T02:56:52.456Z,1021.82
2023-01-28T02:57:52.477Z,1021.87
2023-01-28T02:58:52.496Z,1021.87
2023-01-28T02:59:52.519Z,1021.89
2023-01-28T03:00:52.537Z,1021.90
2023-01-28T03:01:52.633Z,1021.92
2023-01-28T03:02:52.641Z,1021.96
2023-01-28T03:03:52.598Z,1021.95
2023-01-28T03:04:52.620Z,1022.01
2023-01-28T03:05:52.640Z,1021.93
2023-01-28T03:06:52.660Z,1021.99
2023-01-28T03:07:52.682Z,1021.98
2023-01-28T03:08:52.713Z,1021.96
2023-01-28T03:09:52.721Z,1022.04
2023-01-28T03:10:52.767Z,1022.04
2023-01-28T03:11:52.763Z,1022.01
2023-01-28T03:12:53.034Z,1022.00
2023-01-28T03:13:53.004Z,1021.98
2023-01-28T03:14:53.025Z,1022.00
2023-01-28T03:15:52.928Z,1022.03
2023-01-28T03:16:52.966Z,1021.98
2023-01-28T03:17:52.990Z,1022.06
2023-01-28T03:18:53.006Z,1022.05
2023-01-28T03:19:52.927Z,1022.07
2023-01-28T03:20:52.946Z,1022.05
2023-01-28T03:21:52.966Z,1022.08
2023-01-28T03:22:52.992Z,1022.02
2023-01-28T03:23:53.089Z,1022.02
2023-01-28T03:24:53.048Z,1022.04
2023-01-28T03:25:53.049Z,1022.04
2023-01-28T03:26:53.099Z,1022.02
2023-01-28T03:27:53.088Z,1022.07
2023-01-28T03:28:53.115Z,1022.02
2023-01-28T03:29:53.133Z,1021.99
2023-01-28T03:30:53.162Z,1021.97
2023-01-28T03:31:53.199Z,1021.99
2023-01-28T03:32:53.191Z,1022.03
2023-01-28T03:33:53.214Z,1022.05
2023-01-28T03:34:53.231Z,1022.04
2023-01-28T03:35:53.252Z,1022.06
2023-01-28T03:36:53.290Z,1022.04
2023-01-28T03:37:53.290Z,1022.04
2023-01-28T03:38:53.312Z,1022.09
2023-01-28T03:39:53.333Z,1022.06
2023-01-28T03:40:53.356Z,1022.08
2023-01-28T03:41:53.374Z,1022.11
2023-01-28T03:42:53.416Z,1022.08
2023-01-28T03:43:53.420Z,1022.09
2023-01-28T03:44:53.435Z,1022.08
2023-01-28T03:45:53.460Z,1022.08
2023-01-28T03:46:53.477Z,1022.09
2023-01-28T03:47:53.499Z,1022.11
2023-01-28T03:48:53.518Z,1022.09
2023-01-28T03:49:53.538Z,1022.07
2023-01-28T03:50:53.554Z,1022.11
2023-01-28T03:51:53.576Z,1022.12
2023-01-28T03:52:53.598Z,1022.13
2023-01-28T03:53:53.623Z,1022.13
2023-01-28T03:54:53.635Z,1022.14
2023-01-28T03:55:53.655Z,1022.21
2023-01-28T03:56:53.677Z,1022.16
2023-01-28T03:57:53.699Z,1022.17
2023-01-28T03:58:53.777Z,1022.16
2023-01-28T03:59:53.743Z,1022.14
2023-01-28T04:00:53.760Z,1022.16
2023-01-28T04:01:53.804Z,1022.15
2023-01-28T04:02:53.944Z,1022.17
2023-01-28T04:03:53.816Z,1022.21
2023-01-28T04:04:53.839Z,1022.19
2023-01-28T04:05:53.860Z,1022.22
2023-01-28T04:06:53.883Z,1022.27
2023-01-28T04:07:53.899Z,1022.26
2023-01-28T04:08:53.921Z,1022.30
2023-01-28T04:09:53.939Z,1022.30
2023-01-28T04:10:53.965Z,1022.31
2023-01-28T04:11:53.986Z,1022.32
2023-01-28T04:12:54.001Z,1022.29
2023-01-28T04:13:54.024Z,1022.30
2023-01-28T04:14:54.063Z,1022.35
2023-01-28T04:15:54.149Z,1022.30
2023-01-28T04:16:54.086Z,1022.32
2023-01-28T04:17:54.112Z,1022.25
2023-01-28T04:18:54.126Z,1022.30
2023-01-28T04:19:54.142Z,1022.32
2023-01-28T04:20:54.167Z,1022.34
2023-01-28T04:21:54.185Z,1022.36
2023-01-28T04:22:54.206Z,1022.41
2023-01-28T04:23:54.240Z,1022.36
2023-01-28T04:24:54.245Z,1022.42
2023-01-28T04:25:54.264Z,1022.49
2023-01-28T04:26:56.215Z,1022.46
2023-01-28T04:27:54.306Z,1022.37
2023-01-28T04:28:54.327Z,1022.47
2023-01-28T04:29:54.350Z,1022.46
2023-01-28T04:30:54.443Z,1022.48
2023-01-28T04:31:54.388Z,1022.56
2023-01-28T04:32:54.417Z,1022.59
2023-01-28T04:33:54.430Z,1022.59
2023-01-28T04:34:54.451Z,1022.52
2023-01-28T04:35:54.470Z,1022.52
2023-01-28T04:36:54.490Z,1022.48
2023-01-28T04:37:54.523Z,1022.46
2023-01-28T04:38:54.529Z,1022.51
2023-01-28T04:39:54.550Z,1022.46
2023-01-28T04:40:54.573Z,1022.47
2023-01-28T04:41:54.593Z,1022.49
2023-01-28T04:42:54.614Z,1022.50
2023-01-28T04:43:54.632Z,1022.56
2023-01-28T04:44:54.654Z,1022.55
2023-01-28T04:45:54.676Z,1022.58
2023-01-28T04:46:54.812Z,1022.59
2023-01-28T04:47:54.711Z,1022.60
2023-01-28T04:48:54.737Z,1022.63
2023-01-28T04:49:54.758Z,1022.60
2023-01-28T04:50:54.774Z,1022.64
2023-01-28T04:51:54.795Z,1022.66
2023-01-28T04:52:54.827Z,1022.60
2023-01-28T04:53:54.839Z,1022.62
2023-01-28T04:54:54.859Z,1022.67
2023-01-28T04:55:54.877Z,1022.63
2023-01-28T04:56:54.899Z,1022.64
2023-01-28T04:57:54.918Z,1022.63
2023-01-28T04:58:54.941Z,1022.60
2023-01-28T04:59:54.958Z,1022.60
2023-01-28T05:00:55.037Z,1022.63
2023-01-28T05:01:55.051Z,1022.59
2023-01-28T05:02:55.038Z,1022.62
2023-01-28T05:03:55.039Z,1022.61
2023-01-28T05:04:55.067Z,1022.60
2023-01-28T05:05:55.082Z,1022.62
2023-01-28T05:06:55.104Z,1022.62
2023-01-28T05:07:55.125Z,1022.63
2023-01-28T05:08:55.145Z,1022.57
2023-01-28T05:09:55.169Z,1022.69
2023-01-28T05:10:55.186Z,1022.65
2023-01-28T05:11:55.207Z,1022.65
2023-01-28T05:12:55.228Z,1022.64
2023-01-28T05:13:55.246Z,1022.61
2023-01-28T05:14:55.271Z,1022.57
2023-01-28T05:15:55.291Z,1022.59
2023-01-28T05:16:55.329Z,1022.58
2023-01-28T05:17:55.329Z,1022.57
2023-01-28T05:18:55.383Z,1022.60
2023-01-28T05:19:55.381Z,1022.64
2023-01-28T05:20:55.420Z,1022.64
2023-01-28T05:21:55.413Z,1022.64
2023-01-28T05:22:55.436Z,1022.60
2023-01-28T05:23:55.506Z,1022.63
2023-01-28T05:24:55.479Z,1022.64
2023-01-28T05:25:55.500Z,1022.58
2023-01-28T05:26:55.518Z,1022.58
2023-01-28T05:27:55.554Z,1022.61
2023-01-28T05:28:55.559Z,1022.59
2023-01-28T05:29:55.578Z,1022.63
2023-01-28T05:30:55.650Z,1022.60
2023-01-28T05:31:55.618Z,1022.64
2023-01-28T05:32:55.648Z,1022.61
2023-01-28T05:33:55.662Z,1022.59
2023-01-28T05:34:55.705Z,1022.62
2023-01-28T05:35:55.729Z,1022.63
2023-01-28T05:36:55.726Z,1022.60
2023-01-28T05:37:55.755Z,1022.62
2023-01-28T05:38:55.771Z,1022.62
2023-01-28T05:39:55.788Z,1022.60
2023-01-28T05:40:55.811Z,1022.63
2023-01-28T05:41:55.831Z,1022.64
2023-01-28T05:42:55.853Z,1022.64
2023-01-28T05:43:55.880Z,1022.70
2023-01-28T05:44:55.900Z,1022.72
2023-01-28T05:45:55.977Z,1022.72
2023-01-28T05:46:55.937Z,1022.74
2023-01-28T05:47:55.964Z,1022.71
2023-01-28T05:48:55.983Z,1022.72
2023-01-28T05:49:56.003Z,1022.69
2023-01-28T05:50:56.039Z,1022.71
2023-01-28T05:51:56.041Z,1022.67
2023-01-28T05:52:56.065Z,1022.69
2023-01-28T05:53:56.089Z,1022.65
2023-01-28T05:54:56.105Z,1022.69
2023-01-28T05:55:56.178Z,1022.68
2023-01-28T05:56:56.147Z,1022.67
2023-01-28T05:57:56.169Z,1022.75
2023-01-28T05:58:56.188Z,1022.76
2023-01-28T05:59:56.212Z,1022.75
2023-01-28T06:00:56.254Z,1022.79
2023-01-28T06:01:56.254Z,1022.78
2023-01-28T06:02:56.281Z,1022.75
2023-01-28T06:03:56.298Z,1022.77
2023-01-28T06:04:56.347Z,1022.78
2023-01-28T06:05:56.347Z,1022.79
2023-01-28T06:06:56.378Z,1022.82
2023-01-28T06:07:56.385Z,1022.86
2023-01-28T06:08:56.403Z,1022.84
2023-01-28T06:09:56.425Z,1022.81
2023-01-28T06:10:56.456Z,1022.85
2023-01-28T06:11:56.466Z,1022.89
2023-01-28T06:12:56.488Z,1022.86
2023-01-28T06:13:56.509Z,1022.84
2023-01-28T06:14:56.528Z,1022.84
2023-01-28T06:15:56.641Z,1022.86
2023-01-28T06:16:56.575Z,1022.86
2023-01-28T06:17:56.597Z,1022.89
2023-01-28T06:18:56.615Z,1022.90
2023-01-28T06:19:56.635Z,1022.91
2023-01-28T06:20:56.659Z,1022.94
2023-01-28T06:21:56.684Z,1022.89
2023-01-28T06:22:56.720Z,1022.97
2023-01-28T06:23:56.793Z,1022.91
2023-01-28T06:24:56.743Z,1022.85
2023-01-28T06:25:56.765Z,1022.89
2023-01-28T06:26:56.791Z,1022.88
2023-01-28T06:27:56.807Z,1022.90
2023-01-28T06:28:56.827Z,1022.93
2023-01-28T06:29:56.852Z,1022.86
2023-01-28T06:30:56.887Z,1022.91
2023-01-28T06:31:56.929Z,1022.95
2023-01-28T06:32:56.923Z,1022.97
2023-01-28T06:33:56.940Z,1022.95
2023-01-28T06:34:56.954Z,1022.95
2023-01-28T06:35:56.979Z,1022.97
2023-01-28T06:36:57.000Z,1022.96
2023-01-28T06:37:57.023Z,1022.99
2023-01-28T06:38:57.060Z,1023.00
2023-01-28T06:39:57.062Z,1022.98
2023-01-28T06:40:57.083Z,1022.99
2023-01-28T06:41:57.106Z,1023.00
2023-01-28T06:42:57.125Z,1022.96
2023-01-28T06:43:57.148Z,1022.98
2023-01-28T06:44:57.175Z,1022.96
2023-01-28T06:45:57.215Z,1022.93
2023-01-28T06:46:57.211Z,1022.95
2023-01-28T06:47:57.233Z,1022.93
2023-01-28T06:48:57.253Z,1022.98
2023-01-28T06:49:57.283Z,1022.97
2023-01-28T06:50:57.296Z,1022.92
2023-01-28T06:51:57.320Z,1022.93
2023-01-28T06:52:57.340Z,1022.93
2023-01-28T06:53:57.364Z,1022.92
2023-01-28T06:54:57.400Z,1022.94
2023-01-28T06:55:57.403Z,1022.91
2023-01-28T06:56:57.427Z,1022.92
2023-01-28T06:57:57.446Z,1022.91
2023-01-28T06:58:57.472Z,1022.92
2023-01-28T06:59:57.496Z,1022.92
2023-01-28T07:00:57.511Z,1022.93
2023-01-28T07:01:57.624Z,1022.90
2023-01-28T07:02:57.653Z,1022.99
2023-01-28T07:03:57.579Z,1022.99
2023-01-28T07:04:57.596Z,1023.01
2023-01-28T07:05:57.621Z,1023.05
2023-01-28T07:06:57.643Z,1023.05
2023-01-28T07:07:57.663Z,1023.01
2023-01-28T07:08:57.693Z,1023.03
2023-01-28T07:09:57.709Z,1023.02
2023-01-28T07:10:57.751Z,1023.00
2023-01-28T07:11:57.749Z,1023.01
2023-01-28T07:12:57.769Z,1023.09
2023-01-28T07:13:57.796Z,1023.06
2023-01-28T07:14:57.811Z,1023.08
2023-01-28T07:15:57.837Z,1023.05
2023-01-28T07:16:57.930Z,1023.02
2023-01-28T07:17:58.698Z,1023.09
2023-01-28T07:18:57.897Z,1023.09
2023-01-28T07:19:57.921Z,1023.08
2023-01-28T07:20:57.940Z,1023.12
2023-01-28T07:21:57.965Z,1023.11
2023-01-28T07:22:57.986Z,1023.13
2023-01-28T07:23:58.099Z,1023.09
2023-01-28T07:24:58.026Z,1023.10
2023-01-28T07:25:58.050Z,1023.12
2023-01-28T07:26:58.087Z,1023.11
2023-01-28T07:27:58.104Z,1023.10
2023-01-28T07:28:58.125Z,1023.13
2023-01-28T07:29:58.137Z,1023.12
2023-01-28T07:30:58.201Z,1023.13
2023-01-28T07:31:58.300Z,1023.12
2023-01-28T07:32:58.196Z,1023.09
2023-01-28T07:33:58.220Z,1023.12
2023-01-28T07:34:58.245Z,1023.12
2023-01-28T07:35:58.264Z,1023.20
2023-01-28T07:36:58.284Z,1023.16
2023-01-28T07:37:58.307Z,1023.18
2023-01-28T07:38:58.329Z,1023.14
2023-01-28T07:39:58.363Z,1023.12
2023-01-28T07:40:58.370Z,1023.10
2023-01-28T07:41:58.393Z,1023.21
2023-01-28T07:42:58.439Z,1023.19
2023-01-28T07:43:58.434Z,1023.24
2023-01-28T07:44:58.455Z,1023.21
2023-01-28T07:45:58.478Z,1023.19
2023-01-28T07:46:58.542Z,1023.17
2023-01-28T07:47:58.681Z,1023.12
2023-01-28T07:48:58.541Z,1023.13
2023-01-28T07:49:58.565Z,1023.09
2023-01-28T07:50:58.587Z,1023.09
2023-01-28T07:51:58.606Z,1023.07
2023-01-28T07:52:58.649Z,1023.07
2023-01-28T07:53:58.648Z,1023.11
2023-01-28T07:54:58.667Z,1023.09
2023-01-28T07:55:58.693Z,1023.13
2023-01-28T07:56:58.712Z,1023.16
2023-01-28T07:57:58.756Z,1023.17
2023-01-28T07:58:58.777Z,1023.15
2023-01-28T07:59:58.781Z,1023.13
2023-01-28T08:00:58.804Z,1023.14
2023-01-28T08:01:58.822Z,1023.13
2023-01-28T08:02:58.872Z,1023.20
2023-01-28T08:03:58.911Z,1023.19
2023-01-28T08:04:58.994Z,1023.21
2023-01-28T08:05:58.907Z,1023.20
2023-01-28T08:06:58.966Z,1023.20
2023-01-28T08:07:58.950Z,1023.20
2023-01-28T08:08:58.971Z,1023.24
2023-01-28T08:09:58.999Z,1023.19
2023-01-28T08:10:59.132Z,1023.23
2023-01-28T08:11:59.037Z,1023.25
2023-01-28T08:12:59.072Z,1023.33
2023-01-28T08:13:59.080Z,1023.33
2023-01-28T08:14:59.120Z,1023.29
2023-01-28T08:15:59.254Z,1023.32
2023-01-28T08:16:59.144Z,1023.31
2023-01-28T08:17:59.165Z,1023.31
2023-01-28T08:18:59.194Z,1023.34
2023-01-28T08:19:59.225Z,1023.41
2023-01-28T08:20:59.232Z,1023.37
2023-01-28T08:21:59.254Z,1023.43
2023-01-28T08:22:59.271Z,1023.46
2023-01-28T08:23:59.321Z,1023.44
2023-01-28T08:24:59.336Z,1023.41
2023-01-28T08:25:59.354Z,1023.40
2023-01-28T08:26:59.359Z,1023.41
2023-01-28T08:27:59.383Z,1023.49
2023-01-28T08:28:59.404Z,1023.52
2023-01-28T08:29:59.426Z,1023.48
2023-01-28T08:30:59.542Z,1023.51
2023-01-28T08:31:59.471Z,1023.56
2023-01-28T08:32:59.494Z,1023.54
2023-01-28T08:34:02.181Z,1023.48
2023-01-28T08:34:59.534Z,1023.50
2023-01-28T08:35:59.555Z,1023.53
2023-01-28T08:36:59.574Z,1023.49
2023-01-28T08:37:59.621Z,1023.53
2023-01-28T08:38:59.625Z,1023.50
2023-01-28T08:39:59.643Z,1023.47
2023-01-28T08:40:59.663Z,1023.44
2023-01-28T08:41:59.687Z,1023.51
2023-01-28T08:42:59.704Z,1023.48
2023-01-28T08:43:59.730Z,1023.56
2023-01-28T08:44:59.746Z,1023.49
2023-01-28T08:45:59.866Z,1023.52
2023-01-28T08:46:59.809Z,1023.55
2023-01-28T08:47:59.834Z,1023.50
2023-01-28T08:48:59.835Z,1023.50
2023-01-28T08:49:59.873Z,1023.60
2023-01-28T08:50:59.879Z,1023.57
2023-01-28T08:51:59.909Z,1023.63
2023-01-28T08:52:59.933Z,1023.58
2023-01-28T08:53:59.945Z,1023.59
2023-01-28T08:54:59.993Z,1023.58
2023-01-28T08:55:59.986Z,1023.64
2023-01-28T08:57:00.019Z,1023.69
2023-01-28T08:58:00.033Z,1023.70
2023-01-28T08:59:00.054Z,1023.62
2023-01-28T09:00:00.077Z,1023.64
2023-01-28T09:01:00.105Z,1023.58
2023-01-28T09:02:00.243Z,1023.64
2023-01-28T09:03:00.187Z,1023.65
2023-01-28T09:04:00.230Z,1023.62
2023-01-28T09:05:00.183Z,1023.64
2023-01-28T09:06:00.209Z,1023.67
2023-01-28T09:07:00.222Z,1023.68
2023-01-28T09:08:00.250Z,1023.71
2023-01-28T09:09:00.270Z,1023.77
2023-01-28T09:10:00.333Z,1023.76
2023-01-28T09:11:00.318Z,1023.75
2023-01-28T09:12:00.334Z,1023.75
2023-01-28T09:13:00.355Z,1023.78
2023-01-28T09:14:00.379Z,1023.78
2023-01-28T09:15:00.413Z,1023.79
2023-01-28T09:16:00.484Z,1023.80
2023-01-28T09:17:00.448Z,1023.84
2023-01-28T09:18:00.467Z,1023.77
2023-01-28T09:19:00.504Z,1023.84
2023-01-28T09:20:00.509Z,1023.84
2023-01-28T09:21:00.540Z,1023.85
2023-01-28T09:22:00.554Z,1023.83
2023-01-28T09:23:00.579Z,1023.87
2023-01-28T09:24:00.620Z,1023.92
2023-01-28T09:25:00.618Z,1023.92
2023-01-28T09:26:00.643Z,1024.04
2023-01-28T09:27:00.661Z,1024.11
2023-01-28T09:28:00.694Z,1024.11
2023-01-28T09:29:00.705Z,1024.12
2023-01-28T09:30:00.728Z,1024.10
2023-01-28T09:31:00.881Z,1024.11
2023-01-28T09:32:00.770Z,1024.19
2023-01-28T09:33:00.796Z,1024.21
2023-01-28T09:34:00.814Z,1024.27
2023-01-28T09:35:00.856Z,1024.26
2023-01-28T09:36:00.860Z,1024.23
2023-01-28T09:37:00.882Z,1024.21
2023-01-28T09:38:00.899Z,1024.23
2023-01-28T09:39:01.807Z,1024.22
2023-01-28T09:40:00.951Z,1024.30
2023-01-28T09:41:00.975Z,1024.25
2023-01-28T09:42:00.986Z,1024.23
2023-01-28T09:43:01.011Z,1024.29
2023-01-28T09:44:01.030Z,1024.24
2023-01-28T09:45:01.052Z,1024.29
2023-01-28T09:46:01.073Z,1024.32
2023-01-28T09:47:01.166Z,1024.32
2023-01-28T09:48:01.128Z,1024.30
2023-01-28T09:49:01.137Z,1024.30
2023-01-28T09:50:01.164Z,1024.28
2023-01-28T09:51:01.200Z,1024.32
2023-01-28T09:52:01.208Z,1024.30
2023-01-28T09:53:01.226Z,1024.35
2023-01-28T09:54:01.250Z,1024.33
2023-01-28T09:55:01.265Z,1024.32
2023-01-28T09:56:01.292Z,1024.29
2023-01-28T09:57:01.309Z,1024.27
2023-01-28T09:58:01.332Z,1024.27
2023-01-28T09:59:01.357Z,1024.40
2023-01-28T10:00:01.373Z,1024.44
2023-01-28T10:01:01.457Z,1024.45
2023-01-28T10:02:01.418Z,1024.43
2023-01-28T10:03:01.441Z,1024.44
2023-01-28T10:04:01.477Z,1024.43
2023-01-28T10:05:01.479Z,1024.44
2023-01-28T10:06:01.526Z,1024.43
2023-01-28T10:07:01.576Z,1024.42
2023-01-28T10:08:01.550Z,1024.41
2023-01-28T10:09:01.566Z,1024.37
2023-01-28T10:10:01.606Z,1024.36
2023-01-28T10:11:01.612Z,1024.39
2023-01-28T10:12:01.632Z,1024.39
2023-01-28T10:13:01.654Z,1024.37
2023-01-28T10:14:01.677Z,1024.35
2023-01-28T10:15:01.697Z,1024.34
2023-01-28T10:16:01.718Z,1024.32
2023-01-28T10:17:01.802Z,1024.27
2023-01-28T10:18:16.156Z,1024.24
2023-01-28T10:19:01.783Z,1024.28
2023-01-28T10:20:01.802Z,1024.30
2023-01-28T10:21:01.826Z,1024.27
2023-01-28T10:22:01.847Z,1024.40
2023-01-28T10:23:01.893Z,1024.40
2023-01-28T10:24:01.918Z,1024.44
2023-01-28T10:25:02.033Z,1024.44
2023-01-28T10:26:01.937Z,1024.41
2023-01-28T10:27:01.957Z,1024.36
2023-01-28T10:28:01.977Z,1024.37
2023-01-28T10:29:02.001Z,1024.37
2023-01-28T10:30:02.021Z,1024.41
2023-01-28T10:31:02.064Z,1024.35
2023-01-28T10:32:02.063Z,1024.41
2023-01-28T10:33:02.088Z,1024.41
2023-01-28T10:34:02.110Z,1024.42
2023-01-28T10:35:02.130Z,1024.44
2023-01-28T10:36:02.151Z,1024.46
2023-01-28T10:37:02.175Z,1024.40
2023-01-28T10:38:02.200Z,1024.34
2023-01-28T10:39:02.241Z,1024.38
2023-01-28T10:40:02.247Z,1024.38
2023-01-28T10:41:02.262Z,1024.39
2023-01-28T10:42:02.281Z,1024.39
2023-01-28T10:43:02.308Z,1024.46
2023-01-28T10:44:02.323Z,1024.42
2023-01-28T10:45:02.347Z,1024.40
2023-01-28T10:46:02.394Z,1024.37
2023-01-28T10:47:02.391Z,1024.40
2023-01-28T10:48:02.425Z,1024.39
2023-01-28T10:49:02.442Z,1024.42
2023-01-28T10:50:02.460Z,1024.41
2023-01-28T10:51:02.488Z,1024.36
2023-01-28T10:52:02.500Z,1024.32
2023-01-28T10:53:02.523Z,1024.28
2023-01-28T10:54:02.557Z,1024.27
2023-01-28T10:55:02.622Z,1024.29
2023-01-28T10:56:02.587Z,1024.27
2023-01-28T10:57:02.625Z,1024.28
2023-01-28T10:58:02.634Z,1024.26
2023-01-28T10:59:02.701Z,1024.31
2023-01-28T11:00:02.699Z,1024.27
2023-01-28T11:01:02.769Z,1024.24
2023-01-28T11:02:02.758Z,1024.28
2023-01-28T11:03:02.744Z,1024.32
2023-01-28T11:04:02.768Z,1024.29
2023-01-28T11:05:02.787Z,1024.29
2023-01-28T11:06:02.811Z,1024.29
2023-01-28T11:07:02.829Z,1024.24
2023-01-28T11:08:02.853Z,1024.25
2023-01-28T11:09:02.875Z,1024.25
2023-01-28T11:10:02.896Z,1024.24
2023-01-28T11:11:02.962Z,1024.24
2023-01-28T11:12:02.940Z,1024.17
2023-01-28T11:13:02.966Z,1024.25
2023-01-28T11:14:02.988Z,1024.27
2023-01-28T11:15:03.032Z,1024.30
2023-01-28T11:16:03.036Z,1024.27
2023-01-28T11:17:03.058Z,1024.30
2023-01-28T11:18:03.082Z,1024.33
2023-01-28T11:19:03.101Z,1024.32
2023-01-28T11:20:03.114Z,1024.31
2023-01-28T11:21:03.146Z,1024.33
2023-01-28T11:22:03.161Z,1024.32
2023-01-28T11:23:03.183Z,1024.31
2023-01-28T11:24:03.268Z,1024.30
2023-01-28T11:25:03.245Z,1024.29
2023-01-28T11:26:03.249Z,1024.34
2023-01-28T11:27:03.290Z,1024.31
2023-01-28T11:28:03.294Z,1024.26
2023-01-28T11:29:03.316Z,1024.23
2023-01-28T11:30:03.336Z,1024.18
2023-01-28T11:31:03.444Z,1024.12
2023-01-28T11:32:03.377Z,1024.06
2023-01-28T11:33:03.408Z,1024.15
2023-01-28T11:34:03.422Z,1024.22
2023-01-28T11:35:03.462Z,1024.20
2023-01-28T11:36:03.471Z,1024.20
2023-01-28T11:37:03.490Z,1024.20
2023-01-28T11:38:03.510Z,1024.18
2023-01-28T11:39:03.536Z,1024.14
2023-01-28T11:40:03.554Z,1024.19
2023-01-28T11:41:03.594Z,1024.18
2023-01-28T11:42:03.600Z,1024.22
2023-01-28T11:43:03.642Z,1024.27
2023-01-28T11:44:03.713Z,1024.27
2023-01-28T11:45:03.666Z,1024.28
2023-01-28T11:46:05.294Z,1024.28
2023-01-28T11:47:03.710Z,1024.22
2023-01-28T11:48:03.879Z,1024.26
2023-01-28T11:49:03.753Z,1024.31
2023-01-28T11:50:03.774Z,1024.28
2023-01-28T11:51:03.799Z,1024.32
2023-01-28T11:52:03.818Z,1024.26
2023-01-28T11:53:07.139Z,1024.32
2023-01-28T11:54:03.862Z,1024.32
2023-01-28T11:55:03.884Z,1024.30
2023-01-28T11:56:03.908Z,1024.30
2023-01-28T11:57:03.942Z,1024.30
2023-01-28T11:58:03.950Z,1024.27
2023-01-28T11:59:04.001Z,1024.33
2023-01-28T12:00:04.014Z,1024.29
2023-01-28T12:01:04.032Z,1024.28
2023-01-28T12:02:04.042Z,1024.30
2023-01-28T12:03:04.062Z,1024.28
2023-01-28T12:04:04.087Z,1024.26
2023-01-28T12:05:04.146Z,1024.20
2023-01-28T12:06:04.126Z,1024.18